Weather at Flying W Airpark II Airport

Public forecast

Using degrees Fahrenheit for public forecast. Weather courtesy of forecast.io.

Closest aviation weather report (METAR) to Flying W Airpark II Airport

Closest report is Fort Smith Regional Airport, 15.9 nm (29.5 km) W. Retrieved 2022/05/22 20:53 UTC (1 hour ago):

KFSM 222053Z 05006KT 10SM FEW018 BKN036 OVC044 16/12 A3025 RMK AO2 SLP243 T01610117 58009

Closest aviation forecast (TAF) to Flying W Airpark II Airport

Closest forecast is Fort Smith Regional Airport, 15.9 nm (29.5 km) W. Retrieved 2022/05/22 18:30 UTC (4 hours ago):

TAF KFSM 221727Z 2218/2318 06013KT P6SM OVC040 FM230200 09005KT P6SM OVC040